Dearborn, MI (48123)

5:21 AM EST on December 04, 2016 (GMT -0500)
Dearborn, East - north of the real city hall | | Change Station

Elev 597 ft 42.32 °N, 83.18 °W | Updated 58 seconds ago

Overcast
Overcast
35.4 °F
Feels Like 35 °F
N
1.0
Wind Variable Wind from South

Today
High -- | Low -- °F
--% Chance of Precip.
Yesterday
High -- | Low -- °F
Precip. -- in
Pressure 30.28 in
Visibility 10.0 miles
Clouds Overcast 3800 ft
Windchill 35 °F
Dew Point 30 °F
Humidity 81%
Rainfall 0.00 in
Snow Depth Not available.
7:45 AM 5:00 PM
Waxing Crescent, 21% visible
METAR KDET 040953Z 24004KT 10SM OVC038 02/M02 A3026 RMK AO2 SLP252 T00221017
Pressure 30.28 in
Visibility 10.0 miles
Clouds Overcast 3800 ft
Windchill 35 °F
Dew Point 30 °F
Humidity 81%
Rainfall 0.00 in
Snow Depth Not available.
7:45 AM 5:00 PM
Waxing Crescent, 21% visible
METAR KDET 040953Z 24004KT 10SM OVC038 02/M02 A3026 RMK AO2 SLP252 T00221017

10-Day Weather Forecast

Almanac

Astronomy

Dec. 04, 2016 Rise Set
Actual Time
Civil Twilight
Nautical Twilight
Astronomical Twilight
Moon
Length of Visible Light
Length of Day
Tomorrow will be .
, % of the Moon is Illuminated

Today's Extremes

State Highs State Lows

Community

WunderPhotos

Upload Photos

1,955,591 photos uploaded!

WunderBlog® & News

Nearby

Air Quality

  Air Quality AQ Index Pollutant
Not available.

Snow Depth

Station Depth Elevation

Earthquake Activity

City Distance Mag. Time & Date
Minimum magnitude displayed is 2.5.

Coastal Water Temperatures

Place Temperature

Stations

Nearby Weather Stations

Station Location Temp. Windchill Dew Point Humidity Wind Precip. Elev Updated Type
                   

Watches & Warnings

There are currently no watches in effect.